sensor_id;sensor_type;location;lat;lon;timestamp;P1;durP1;ratioP1;P2;durP2;ratioP2
3054;SDS011;1537;52.018;8.542;2023-04-06T00:02:43;14.97;;;10.37;;
3054;SDS011;1537;52.018;8.542;2023-04-06T00:06:09;14.27;;;10.03;;
3054;SDS011;1537;52.018;8.542;2023-04-06T00:09:34;14.40;;;9.80;;
3054;SDS011;1537;52.018;8.542;2023-04-06T00:12:58;14.67;;;9.80;;
3054;SDS011;1537;52.018;8.542;2023-04-06T00:16:22;14.10;;;10.40;;
3054;SDS011;1537;52.018;8.542;2023-04-06T00:19:50;12.00;;;9.40;;
3054;SDS011;1537;52.018;8.542;2023-04-06T00:23:14;14.10;;;10.07;;
3054;SDS011;1537;52.018;8.542;2023-04-06T00:26:38;15.17;;;9.63;;
3054;SDS011;1537;52.018;8.542;2023-04-06T00:30:03;12.80;;;10.10;;
3054;SDS011;1537;52.018;8.542;2023-04-06T00:33:27;16.70;;;10.33;;
3054;SDS011;1537;52.018;8.542;2023-04-06T00:36:53;14.07;;;9.90;;
3054;SDS011;1537;52.018;8.542;2023-04-06T00:40:17;13.97;;;9.83;;
3054;SDS011;1537;52.018;8.542;2023-04-06T00:43:41;15.50;;;9.50;;
3054;SDS011;1537;52.018;8.542;2023-04-06T00:47:05;16.53;;;10.50;;
3054;SDS011;1537;52.018;8.542;2023-04-06T00:50:29;12.93;;;10.20;;
3054;SDS011;1537;52.018;8.542;2023-04-06T00:53:55;14.17;;;9.90;;
3054;SDS011;1537;52.018;8.542;2023-04-06T00:57:19;14.17;;;9.73;;
3054;SDS011;1537;52.018;8.542;2023-04-06T01:00:49;14.33;;;9.50;;
3054;SDS011;1537;52.018;8.542;2023-04-06T01:04:16;12.37;;;11.03;;
3054;SDS011;1537;52.018;8.542;2023-04-06T01:07:41;14.93;;;10.20;;
3054;SDS011;1537;52.018;8.542;2023-04-06T01:11:12;12.53;;;9.30;;
3054;SDS011;1537;52.018;8.542;2023-04-06T01:14:36;11.77;;;9.80;;
3054;SDS011;1537;52.018;8.542;2023-04-06T01:18:01;16.27;;;9.33;;
3054;SDS011;1537;52.018;8.542;2023-04-06T01:21:29;15.27;;;9.30;;
3054;SDS011;1537;52.018;8.542;2023-04-06T01:25:10;10.37;;;9.10;;
3054;SDS011;1537;52.018;8.542;2023-04-06T01:28:54;14.37;;;10.20;;
3054;SDS011;1537;52.018;8.542;2023-04-06T01:32:21;11.07;;;9.00;;
3054;SDS011;1537;52.018;8.542;2023-04-06T01:35:46;14.53;;;9.77;;
3054;SDS011;1537;52.018;8.542;2023-04-06T01:39:13;13.77;;;9.20;;
3054;SDS011;1537;52.018;8.542;2023-04-06T01:42:39;12.57;;;9.20;;
3054;SDS011;1537;52.018;8.542;2023-04-06T01:46:05;14.80;;;9.33;;
3054;SDS011;1537;52.018;8.542;2023-04-06T01:49:36;12.90;;;9.80;;
3054;SDS011;1537;52.018;8.542;2023-04-06T01:53:00;18.10;;;9.10;;
3054;SDS011;1537;52.018;8.542;2023-04-06T01:56:25;11.23;;;9.07;;
3054;SDS011;1537;52.018;8.542;2023-04-06T02:00:02;12.70;;;9.10;;
3054;SDS011;1537;52.018;8.542;2023-04-06T02:03:43;13.07;;;9.00;;
3054;SDS011;1537;52.018;8.542;2023-04-06T02:07:09;12.77;;;8.67;;
3054;SDS011;1537;52.018;8.542;2023-04-06T02:10:36;13.83;;;9.27;;
3054;SDS011;1537;52.018;8.542;2023-04-06T02:14:08;11.33;;;8.87;;
3054;SDS011;1537;52.018;8.542;2023-04-06T02:17:39;13.53;;;8.97;;
3054;SDS011;1537;52.018;8.542;2023-04-06T02:21:05;11.37;;;8.97;;
3054;SDS011;1537;52.018;8.542;2023-04-06T02:24:29;13.63;;;9.67;;
3054;SDS011;1537;52.018;8.542;2023-04-06T02:27:53;11.07;;;9.50;;
3054;SDS011;1537;52.018;8.542;2023-04-06T02:31:17;11.67;;;8.63;;
3054;SDS011;1537;52.018;8.542;2023-04-06T02:34:45;13.20;;;9.10;;
3054;SDS011;1537;52.018;8.542;2023-04-06T02:38:12;12.90;;;8.80;;
3054;SDS011;1537;52.018;8.542;2023-04-06T02:41:36;12.17;;;9.27;;
3054;SDS011;1537;52.018;8.542;2023-04-06T02:45:01;14.63;;;10.97;;
3054;SDS011;1537;52.018;8.542;2023-04-06T02:48:33;12.20;;;9.90;;
3054;SDS011;1537;52.018;8.542;2023-04-06T02:52:00;11.97;;;9.60;;
3054;SDS011;1537;52.018;8.542;2023-04-06T02:55:29;13.87;;;9.87;;
3054;SDS011;1537;52.018;8.542;2023-04-06T02:58:52;12.57;;;9.47;;
3054;SDS011;1537;52.018;8.542;2023-04-06T03:02:20;18.97;;;10.63;;
3054;SDS011;1537;52.018;8.542;2023-04-06T03:05:45;13.27;;;9.40;;
3054;SDS011;1537;52.018;8.542;2023-04-06T03:09:22;11.93;;;9.57;;
3054;SDS011;1537;52.018;8.542;2023-04-06T03:12:50;12.00;;;9.50;;
3054;SDS011;1537;52.018;8.542;2023-04-06T03:16:26;16.50;;;9.83;;
3054;SDS011;1537;52.018;8.542;2023-04-06T03:19:51;12.67;;;9.50;;
3054;SDS011;1537;52.018;8.542;2023-04-06T03:23:17;14.70;;;10.50;;
3054;SDS011;1537;52.018;8.542;2023-04-06T03:26:48;12.20;;;10.03;;
3054;SDS011;1537;52.018;8.542;2023-04-06T03:30:13;16.03;;;10.70;;
3054;SDS011;1537;52.018;8.542;2023-04-06T03:33:38;13.23;;;10.27;;
3054;SDS011;1537;52.018;8.542;2023-04-06T03:37:05;15.40;;;9.90;;
3054;SDS011;1537;52.018;8.542;2023-04-06T03:40:38;14.40;;;10.80;;
3054;SDS011;1537;52.018;8.542;2023-04-06T03:44:05;12.60;;;10.33;;
3054;SDS011;1537;52.018;8.542;2023-04-06T03:47:29;16.03;;;10.37;;
3054;SDS011;1537;52.018;8.542;2023-04-06T03:50:58;16.23;;;11.00;;
3054;SDS011;1537;52.018;8.542;2023-04-06T03:54:22;13.60;;;10.20;;
3054;SDS011;1537;52.018;8.542;2023-04-06T03:57:46;12.23;;;10.10;;
3054;SDS011;1537;52.018;8.542;2023-04-06T04:01:13;25.17;;;10.93;;
3054;SDS011;1537;52.018;8.542;2023-04-06T04:04:37;16.70;;;11.27;;
3054;SDS011;1537;52.018;8.542;2023-04-06T04:08:04;17.80;;;10.00;;
3054;SDS011;1537;52.018;8.542;2023-04-06T04:11:28;14.20;;;10.37;;
3054;SDS011;1537;52.018;8.542;2023-04-06T04:14:55;13.87;;;10.60;;
3054;SDS011;1537;52.018;8.542;2023-04-06T04:18:20;13.50;;;10.17;;
3054;SDS011;1537;52.018;8.542;2023-04-06T04:21:44;14.87;;;10.97;;
3054;SDS011;1537;52.018;8.542;2023-04-06T04:25:13;18.57;;;13.10;;
3054;SDS011;1537;52.018;8.542;2023-04-06T04:28:43;12.50;;;10.23;;
3054;SDS011;1537;52.018;8.542;2023-04-06T04:32:07;15.50;;;11.20;;
3054;SDS011;1537;52.018;8.542;2023-04-06T04:35:32;16.77;;;12.43;;
3054;SDS011;1537;52.018;8.542;2023-04-06T04:38:57;18.83;;;13.07;;
3054;SDS011;1537;52.018;8.542;2023-04-06T04:42:27;20.00;;;12.77;;
3054;SDS011;1537;52.018;8.542;2023-04-06T04:45:54;17.07;;;12.07;;
3054;SDS011;1537;52.018;8.542;2023-04-06T04:49:29;16.93;;;12.27;;
3054;SDS011;1537;52.018;8.542;2023-04-06T04:52:55;16.53;;;11.43;;
3054;SDS011;1537;52.018;8.542;2023-04-06T04:56:21;15.30;;;11.83;;
3054;SDS011;1537;52.018;8.542;2023-04-06T04:59:51;15.63;;;11.23;;
3054;SDS011;1537;52.018;8.542;2023-04-06T05:03:19;18.20;;;12.30;;
3054;SDS011;1537;52.018;8.542;2023-04-06T05:07:01;14.57;;;11.50;;
3054;SDS011;1537;52.018;8.542;2023-04-06T05:10:36;16.30;;;12.40;;
3054;SDS011;1537;52.018;8.542;2023-04-06T05:14:03;18.57;;;13.20;;
3054;SDS011;1537;52.018;8.542;2023-04-06T05:17:28;18.47;;;11.10;;
3054;SDS011;1537;52.018;8.542;2023-04-06T05:20:53;16.07;;;11.23;;
3054;SDS011;1537;52.018;8.542;2023-04-06T05:24:25;15.87;;;11.60;;
3054;SDS011;1537;52.018;8.542;2023-04-06T05:27:53;16.67;;;11.40;;
3054;SDS011;1537;52.018;8.542;2023-04-06T05:31:41;15.50;;;11.30;;
3054;SDS011;1537;52.018;8.542;2023-04-06T05:35:05;14.00;;;11.20;;
3054;SDS011;1537;52.018;8.542;2023-04-06T05:38:38;14.90;;;11.90;;
3054;SDS011;1537;52.018;8.542;2023-04-06T05:42:13;11.97;;;9.93;;
3054;SDS011;1537;52.018;8.542;2023-04-06T05:45:47;14.50;;;11.80;;
3054;SDS011;1537;52.018;8.542;2023-04-06T05:49:12;14.07;;;10.97;;
3054;SDS011;1537;52.018;8.542;2023-04-06T05:52:36;12.80;;;11.00;;
3054;SDS011;1537;52.018;8.542;2023-04-06T05:56:00;17.43;;;12.03;;
3054;SDS011;1537;52.018;8.542;2023-04-06T05:59:26;15.27;;;10.60;;
3054;SDS011;1537;52.018;8.542;2023-04-06T06:02:51;15.40;;;11.50;;
3054;SDS011;1537;52.018;8.542;2023-04-06T06:06:20;17.63;;;11.70;;
3054;SDS011;1537;52.018;8.542;2023-04-06T06:10:00;14.60;;;10.90;;
3054;SDS011;1537;52.018;8.542;2023-04-06T06:13:28;13.93;;;10.83;;
3054;SDS011;1537;52.018;8.542;2023-04-06T06:16:52;20.23;;;12.20;;
3054;SDS011;1537;52.018;8.542;2023-04-06T06:20:19;19.93;;;10.60;;
3054;SDS011;1537;52.018;8.542;2023-04-06T06:23:43;15.20;;;10.80;;
3054;SDS011;1537;52.018;8.542;2023-04-06T06:27:12;14.53;;;10.30;;
3054;SDS011;1537;52.018;8.542;2023-04-06T06:30:36;13.50;;;12.10;;
3054;SDS011;1537;52.018;8.542;2023-04-06T06:34:01;14.03;;;10.77;;
3054;SDS011;1537;52.018;8.542;2023-04-06T06:37:30;16.30;;;10.30;;
3054;SDS011;1537;52.018;8.542;2023-04-06T06:40:57;15.07;;;11.40;;
3054;SDS011;1537;52.018;8.542;2023-04-06T06:44:24;14.83;;;11.50;;
3054;SDS011;1537;52.018;8.542;2023-04-06T06:47:49;14.63;;;10.57;;
3054;SDS011;1537;52.018;8.542;2023-04-06T06:51:17;20.43;;;12.07;;
3054;SDS011;1537;52.018;8.542;2023-04-06T06:54:43;15.00;;;10.20;;
3054;SDS011;1537;52.018;8.542;2023-04-06T06:58:07;15.73;;;11.30;;
3054;SDS011;1537;52.018;8.542;2023-04-06T07:01:32;13.00;;;10.17;;
3054;SDS011;1537;52.018;8.542;2023-04-06T07:04:57;13.60;;;9.70;;
3054;SDS011;1537;52.018;8.542;2023-04-06T07:08:21;12.50;;;10.10;;
3054;SDS011;1537;52.018;8.542;2023-04-06T07:11:47;13.90;;;10.67;;
3054;SDS011;1537;52.018;8.542;2023-04-06T07:15:14;12.27;;;10.40;;
3054;SDS011;1537;52.018;8.542;2023-04-06T07:18:40;16.13;;;12.20;;
3054;SDS011;1537;52.018;8.542;2023-04-06T07:22:05;15.90;;;11.27;;
3054;SDS011;1537;52.018;8.542;2023-04-06T07:25:29;13.93;;;9.47;;
3054;SDS011;1537;52.018;8.542;2023-04-06T07:28:54;13.13;;;9.23;;
3054;SDS011;1537;52.018;8.542;2023-04-06T07:32:20;12.07;;;8.83;;
3054;SDS011;1537;52.018;8.542;2023-04-06T07:35:44;12.03;;;10.13;;
3054;SDS011;1537;52.018;8.542;2023-04-06T07:39:09;13.97;;;9.27;;
3054;SDS011;1537;52.018;8.542;2023-04-06T07:42:34;13.97;;;10.20;;
3054;SDS011;1537;52.018;8.542;2023-04-06T07:46:02;16.80;;;10.80;;
3054;SDS011;1537;52.018;8.542;2023-04-06T07:49:27;13.73;;;10.80;;
3054;SDS011;1537;52.018;8.542;2023-04-06T07:52:51;13.83;;;8.67;;
3054;SDS011;1537;52.018;8.542;2023-04-06T07:56:16;17.23;;;10.27;;
3054;SDS011;1537;52.018;8.542;2023-04-06T07:59:41;12.43;;;9.30;;
3054;SDS011;1537;52.018;8.542;2023-04-06T08:03:06;12.40;;;9.67;;
3054;SDS011;1537;52.018;8.542;2023-04-06T08:06:31;11.33;;;8.90;;
3054;SDS011;1537;52.018;8.542;2023-04-06T08:09:56;11.27;;;9.17;;
3054;SDS011;1537;52.018;8.542;2023-04-06T08:13:20;12.63;;;9.30;;
3054;SDS011;1537;52.018;8.542;2023-04-06T08:16:44;12.50;;;10.00;;
3054;SDS011;1537;52.018;8.542;2023-04-06T08:20:09;13.50;;;9.10;;
3054;SDS011;1537;52.018;8.542;2023-04-06T08:23:33;10.97;;;9.87;;
3054;SDS011;1537;52.018;8.542;2023-04-06T08:26:59;11.50;;;9.90;;
3054;SDS011;1537;52.018;8.542;2023-04-06T08:30:31;11.53;;;8.90;;
3054;SDS011;1537;52.018;8.542;2023-04-06T08:33:55;11.30;;;10.10;;
3054;SDS011;1537;52.018;8.542;2023-04-06T08:37:20;11.43;;;8.83;;
3054;SDS011;1537;52.018;8.542;2023-04-06T08:40:44;11.60;;;8.47;;
3054;SDS011;1537;52.018;8.542;2023-04-06T08:44:10;11.80;;;8.57;;
3054;SDS011;1537;52.018;8.542;2023-04-06T08:47:35;12.03;;;9.10;;
3054;SDS011;1537;52.018;8.542;2023-04-06T08:50:59;12.87;;;11.40;;
3054;SDS011;1537;52.018;8.542;2023-04-06T08:54:25;14.37;;;11.00;;
3054;SDS011;1537;52.018;8.542;2023-04-06T08:57:49;11.40;;;10.30;;
3054;SDS011;1537;52.018;8.542;2023-04-06T09:01:17;12.90;;;10.50;;
3054;SDS011;1537;52.018;8.542;2023-04-06T09:04:44;12.23;;;11.03;;
3054;SDS011;1537;52.018;8.542;2023-04-06T09:08:11;11.90;;;10.70;;
3054;SDS011;1537;52.018;8.542;2023-04-06T09:11:43;12.80;;;10.87;;
3054;SDS011;1537;52.018;8.542;2023-04-06T09:15:17;12.10;;;10.97;;
3054;SDS011;1537;52.018;8.542;2023-04-06T09:18:44;13.53;;;10.43;;
3054;SDS011;1537;52.018;8.542;2023-04-06T09:22:08;16.13;;;10.83;;
3054;SDS011;1537;52.018;8.542;2023-04-06T09:25:32;14.73;;;11.87;;
3054;SDS011;1537;52.018;8.542;2023-04-06T09:28:58;12.33;;;10.30;;
3054;SDS011;1537;52.018;8.542;2023-04-06T09:32:27;11.97;;;10.77;;
3054;SDS011;1537;52.018;8.542;2023-04-06T09:35:51;13.17;;;11.77;;
3054;SDS011;1537;52.018;8.542;2023-04-06T09:39:15;14.17;;;12.10;;
3054;SDS011;1537;52.018;8.542;2023-04-06T09:42:44;13.37;;;11.10;;
3054;SDS011;1537;52.018;8.542;2023-04-06T09:46:11;14.03;;;11.50;;
3054;SDS011;1537;52.018;8.542;2023-04-06T09:49:35;15.70;;;12.20;;
3054;SDS011;1537;52.018;8.542;2023-04-06T09:52:59;18.70;;;12.83;;
3054;SDS011;1537;52.018;8.542;2023-04-06T09:56:24;13.27;;;11.97;;
3054;SDS011;1537;52.018;8.542;2023-04-06T09:59:55;14.80;;;13.30;;
3054;SDS011;1537;52.018;8.542;2023-04-06T10:03:32;14.27;;;12.93;;
3054;SDS011;1537;52.018;8.542;2023-04-06T10:07:04;14.57;;;12.40;;
3054;SDS011;1537;52.018;8.542;2023-04-06T10:10:29;14.23;;;11.23;;
3054;SDS011;1537;52.018;8.542;2023-04-06T10:13:53;15.07;;;12.90;;
3054;SDS011;1537;52.018;8.542;2023-04-06T10:17:18;14.90;;;13.20;;
3054;SDS011;1537;52.018;8.542;2023-04-06T10:20:47;14.33;;;11.83;;
3054;SDS011;1537;52.018;8.542;2023-04-06T10:24:14;13.47;;;12.10;;
3054;SDS011;1537;52.018;8.542;2023-04-06T10:27:39;14.93;;;12.57;;
3054;SDS011;1537;52.018;8.542;2023-04-06T10:31:04;15.10;;;12.67;;
3054;SDS011;1537;52.018;8.542;2023-04-06T10:34:33;15.70;;;10.83;;
3054;SDS011;1537;52.018;8.542;2023-04-06T10:38:01;17.13;;;12.83;;
3054;SDS011;1537;52.018;8.542;2023-04-06T10:41:31;15.33;;;11.63;;
3054;SDS011;1537;52.018;8.542;2023-04-06T10:44:56;14.03;;;12.10;;
3054;SDS011;1537;52.018;8.542;2023-04-06T10:48:20;15.73;;;13.83;;
3054;SDS011;1537;52.018;8.542;2023-04-06T10:51:50;16.50;;;12.50;;
3054;SDS011;1537;52.018;8.542;2023-04-06T10:55:16;15.63;;;12.70;;
3054;SDS011;1537;52.018;8.542;2023-04-06T10:58:45;16.77;;;12.73;;
3054;SDS011;1537;52.018;8.542;2023-04-06T11:02:18;14.87;;;13.37;;
3054;SDS011;1537;52.018;8.542;2023-04-06T11:05:44;15.33;;;13.73;;
3054;SDS011;1537;52.018;8.542;2023-04-06T11:09:09;13.43;;;12.03;;
3054;SDS011;1537;52.018;8.542;2023-04-06T11:12:34;20.33;;;11.87;;
3054;SDS011;1537;52.018;8.542;2023-04-06T11:15:58;13.50;;;12.10;;
3054;SDS011;1537;52.018;8.542;2023-04-06T11:19:22;14.00;;;11.43;;
3054;SDS011;1537;52.018;8.542;2023-04-06T11:22:50;16.77;;;12.60;;
3054;SDS011;1537;52.018;8.542;2023-04-06T11:26:14;17.10;;;13.20;;
3054;SDS011;1537;52.018;8.542;2023-04-06T11:29:40;18.03;;;13.50;;
3054;SDS011;1537;52.018;8.542;2023-04-06T11:33:03;17.43;;;12.60;;
3054;SDS011;1537;52.018;8.542;2023-04-06T11:36:28;16.33;;;13.07;;
3054;SDS011;1537;52.018;8.542;2023-04-06T11:39:53;16.07;;;12.50;;
3054;SDS011;1537;52.018;8.542;2023-04-06T11:43:25;17.00;;;14.23;;
3054;SDS011;1537;52.018;8.542;2023-04-06T11:46:54;14.50;;;12.70;;
3054;SDS011;1537;52.018;8.542;2023-04-06T11:50:20;16.50;;;14.80;;
3054;SDS011;1537;52.018;8.542;2023-04-06T11:53:44;16.27;;;14.57;;
3054;SDS011;1537;52.018;8.542;2023-04-06T11:57:08;18.83;;;14.93;;
3054;SDS011;1537;52.018;8.542;2023-04-06T12:00:32;20.47;;;13.97;;
3054;SDS011;1537;52.018;8.542;2023-04-06T12:04:00;18.33;;;14.83;;
3054;SDS011;1537;52.018;8.542;2023-04-06T12:07:25;19.20;;;14.00;;
3054;SDS011;1537;52.018;8.542;2023-04-06T12:10:49;17.83;;;13.97;;
3054;SDS011;1537;52.018;8.542;2023-04-06T12:14:13;14.87;;;13.30;;
3054;SDS011;1537;52.018;8.542;2023-04-06T12:17:37;17.33;;;14.20;;
3054;SDS011;1537;52.018;8.542;2023-04-06T12:21:03;15.67;;;12.57;;
3054;SDS011;1537;52.018;8.542;2023-04-06T12:24:27;14.10;;;11.07;;
3054;SDS011;1537;52.018;8.542;2023-04-06T12:27:51;14.50;;;12.10;;
3054;SDS011;1537;52.018;8.542;2023-04-06T12:31:15;12.10;;;9.63;;
3054;SDS011;1537;52.018;8.542;2023-04-06T12:34:40;14.90;;;12.30;;
3054;SDS011;1537;52.018;8.542;2023-04-06T12:38:14;16.13;;;13.00;;
3054;SDS011;1537;52.018;8.542;2023-04-06T12:41:42;17.20;;;12.33;;
3054;SDS011;1537;52.018;8.542;2023-04-06T12:45:08;14.37;;;12.87;;
3054;SDS011;1537;52.018;8.542;2023-04-06T12:48:32;15.17;;;12.97;;
3054;SDS011;1537;52.018;8.542;2023-04-06T12:51:56;14.03;;;12.40;;
3054;SDS011;1537;52.018;8.542;2023-04-06T12:55:22;13.43;;;11.93;;
3054;SDS011;1537;52.018;8.542;2023-04-06T12:58:52;14.60;;;13.13;;
3054;SDS011;1537;52.018;8.542;2023-04-06T13:02:17;15.50;;;12.60;;
3054;SDS011;1537;52.018;8.542;2023-04-06T13:05:43;17.60;;;11.90;;
3054;SDS011;1537;52.018;8.542;2023-04-06T13:09:07;14.13;;;11.73;;
3054;SDS011;1537;52.018;8.542;2023-04-06T13:12:32;15.27;;;12.83;;
3054;SDS011;1537;52.018;8.542;2023-04-06T13:15:59;15.03;;;13.50;;
3054;SDS011;1537;52.018;8.542;2023-04-06T13:19:24;15.07;;;12.40;;
3054;SDS011;1537;52.018;8.542;2023-04-06T13:22:48;15.23;;;13.60;;
3054;SDS011;1537;52.018;8.542;2023-04-06T13:26:12;18.43;;;12.73;;
3054;SDS011;1537;52.018;8.542;2023-04-06T13:29:38;15.73;;;14.03;;
3054;SDS011;1537;52.018;8.542;2023-04-06T13:33:02;15.87;;;13.00;;
3054;SDS011;1537;52.018;8.542;2023-04-06T13:36:26;16.30;;;13.83;;
3054;SDS011;1537;52.018;8.542;2023-04-06T13:39:50;14.60;;;12.30;;
3054;SDS011;1537;52.018;8.542;2023-04-06T13:43:14;14.10;;;12.30;;
3054;SDS011;1537;52.018;8.542;2023-04-06T13:46:41;17.50;;;12.80;;
3054;SDS011;1537;52.018;8.542;2023-04-06T13:50:06;13.60;;;12.23;;
3054;SDS011;1537;52.018;8.542;2023-04-06T13:53:30;19.43;;;12.73;;
3054;SDS011;1537;52.018;8.542;2023-04-06T13:56:54;13.97;;;12.27;;
3054;SDS011;1537;52.018;8.542;2023-04-06T14:00:18;15.27;;;13.27;;
3054;SDS011;1537;52.018;8.542;2023-04-06T14:03:44;15.90;;;13.43;;
3054;SDS011;1537;52.018;8.542;2023-04-06T14:07:10;18.23;;;13.77;;
3054;SDS011;1537;52.018;8.542;2023-04-06T14:10:36;16.03;;;13.20;;
3054;SDS011;1537;52.018;8.542;2023-04-06T14:14:00;18.73;;;15.47;;
3054;SDS011;1537;52.018;8.542;2023-04-06T14:17:24;16.57;;;14.87;;
3054;SDS011;1537;52.018;8.542;2023-04-06T14:20:54;18.17;;;14.00;;
3054;SDS011;1537;52.018;8.542;2023-04-06T14:24:20;18.30;;;13.50;;
3054;SDS011;1537;52.018;8.542;2023-04-06T14:27:44;17.67;;;13.87;;
3054;SDS011;1537;52.018;8.542;2023-04-06T14:31:11;19.53;;;13.53;;
3054;SDS011;1537;52.018;8.542;2023-04-06T14:34:37;20.80;;;15.23;;
3054;SDS011;1537;52.018;8.542;2023-04-06T14:38:02;21.10;;;16.77;;
3054;SDS011;1537;52.018;8.542;2023-04-06T14:41:26;14.87;;;13.37;;
3054;SDS011;1537;52.018;8.542;2023-04-06T14:44:49;17.93;;;14.37;;
3054;SDS011;1537;52.018;8.542;2023-04-06T14:48:14;14.90;;;13.10;;
3054;SDS011;1537;52.018;8.542;2023-04-06T14:51:39;20.50;;;14.63;;
3054;SDS011;1537;52.018;8.542;2023-04-06T14:55:04;20.83;;;15.13;;
3054;SDS011;1537;52.018;8.542;2023-04-06T14:58:28;18.07;;;14.60;;
3054;SDS011;1537;52.018;8.542;2023-04-06T15:01:52;17.43;;;13.70;;
3054;SDS011;1537;52.018;8.542;2023-04-06T15:05:16;15.73;;;13.70;;
3054;SDS011;1537;52.018;8.542;2023-04-06T15:08:40;16.70;;;13.63;;
3054;SDS011;1537;52.018;8.542;2023-04-06T15:12:06;18.37;;;14.47;;
3054;SDS011;1537;52.018;8.542;2023-04-06T15:15:30;18.73;;;15.07;;
3054;SDS011;1537;52.018;8.542;2023-04-06T15:18:54;16.77;;;13.90;;
3054;SDS011;1537;52.018;8.542;2023-04-06T15:22:17;23.73;;;14.13;;
3054;SDS011;1537;52.018;8.542;2023-04-06T15:25:41;18.70;;;13.33;;
3054;SDS011;1537;52.018;8.542;2023-04-06T15:29:06;19.40;;;15.57;;
3054;SDS011;1537;52.018;8.542;2023-04-06T15:32:30;17.20;;;14.10;;
3054;SDS011;1537;52.018;8.542;2023-04-06T15:35:54;19.67;;;14.93;;
3054;SDS011;1537;52.018;8.542;2023-04-06T15:39:18;17.67;;;13.77;;
3054;SDS011;1537;52.018;8.542;2023-04-06T15:42:41;19.53;;;14.13;;
3054;SDS011;1537;52.018;8.542;2023-04-06T15:46:07;17.50;;;13.47;;
3054;SDS011;1537;52.018;8.542;2023-04-06T15:49:30;18.30;;;14.10;;
3054;SDS011;1537;52.018;8.542;2023-04-06T15:52:54;22.20;;;13.90;;
3054;SDS011;1537;52.018;8.542;2023-04-06T15:56:18;16.00;;;13.50;;
3054;SDS011;1537;52.018;8.542;2023-04-06T15:59:42;15.80;;;12.60;;
3054;SDS011;1537;52.018;8.542;2023-04-06T16:03:06;15.90;;;12.40;;
3054;SDS011;1537;52.018;8.542;2023-04-06T16:06:31;16.80;;;12.07;;
3054;SDS011;1537;52.018;8.542;2023-04-06T16:09:55;14.83;;;10.90;;
3054;SDS011;1537;52.018;8.542;2023-04-06T16:13:19;15.77;;;11.70;;
3054;SDS011;1537;52.018;8.542;2023-04-06T16:16:43;15.87;;;11.47;;
3054;SDS011;1537;52.018;8.542;2023-04-06T16:20:09;17.17;;;12.20;;
3054;SDS011;1537;52.018;8.542;2023-04-06T16:23:36;16.40;;;13.20;;
3054;SDS011;1537;52.018;8.542;2023-04-06T16:27:00;17.80;;;13.17;;
3054;SDS011;1537;52.018;8.542;2023-04-06T16:30:24;15.47;;;12.50;;
3054;SDS011;1537;52.018;8.542;2023-04-06T16:33:51;15.47;;;12.17;;
3054;SDS011;1537;52.018;8.542;2023-04-06T16:37:17;18.30;;;12.57;;
3054;SDS011;1537;52.018;8.542;2023-04-06T16:40:41;16.17;;;12.50;;
3054;SDS011;1537;52.018;8.542;2023-04-06T16:44:05;16.93;;;11.60;;
3054;SDS011;1537;52.018;8.542;2023-04-06T16:47:30;13.53;;;11.10;;
3054;SDS011;1537;52.018;8.542;2023-04-06T16:50:54;16.13;;;12.23;;
3054;SDS011;1537;52.018;8.542;2023-04-06T16:54:19;16.73;;;14.37;;
3054;SDS011;1537;52.018;8.542;2023-04-06T16:57:42;14.47;;;11.70;;
3054;SDS011;1537;52.018;8.542;2023-04-06T17:01:06;16.30;;;11.77;;
3054;SDS011;1537;52.018;8.542;2023-04-06T17:04:30;13.70;;;12.03;;
3054;SDS011;1537;52.018;8.542;2023-04-06T17:07:54;16.90;;;12.87;;
3054;SDS011;1537;52.018;8.542;2023-04-06T17:11:19;16.47;;;12.50;;
3054;SDS011;1537;52.018;8.542;2023-04-06T17:14:53;16.10;;;12.20;;
3054;SDS011;1537;52.018;8.542;2023-04-06T17:18:17;14.43;;;12.00;;
3054;SDS011;1537;52.018;8.542;2023-04-06T17:21:41;24.23;;;13.13;;
3054;SDS011;1537;52.018;8.542;2023-04-06T17:25:05;16.00;;;12.50;;
3054;SDS011;1537;52.018;8.542;2023-04-06T17:28:31;18.77;;;13.47;;
3054;SDS011;1537;52.018;8.542;2023-04-06T17:31:55;17.40;;;13.60;;
3054;SDS011;1537;52.018;8.542;2023-04-06T17:35:18;18.43;;;12.90;;
3054;SDS011;1537;52.018;8.542;2023-04-06T17:38:42;18.23;;;12.37;;
3054;SDS011;1537;52.018;8.542;2023-04-06T17:42:07;15.33;;;12.80;;
3054;SDS011;1537;52.018;8.542;2023-04-06T17:45:32;18.80;;;12.90;;
3054;SDS011;1537;52.018;8.542;2023-04-06T17:48:55;18.30;;;12.70;;
3054;SDS011;1537;52.018;8.542;2023-04-06T17:52:19;18.93;;;13.50;;
3054;SDS011;1537;52.018;8.542;2023-04-06T17:55:43;15.73;;;12.67;;
3054;SDS011;1537;52.018;8.542;2023-04-06T17:59:07;16.57;;;13.00;;
3054;SDS011;1537;52.018;8.542;2023-04-06T18:02:33;17.63;;;13.77;;
3054;SDS011;1537;52.018;8.542;2023-04-06T18:06:07;19.03;;;14.20;;
3054;SDS011;1537;52.018;8.542;2023-04-06T18:09:31;22.30;;;12.77;;
3054;SDS011;1537;52.018;8.542;2023-04-06T18:12:55;15.07;;;13.00;;
3054;SDS011;1537;52.018;8.542;2023-04-06T18:16:19;16.93;;;13.57;;
3054;SDS011;1537;52.018;8.542;2023-04-06T18:19:44;21.97;;;12.80;;
3054;SDS011;1537;52.018;8.542;2023-04-06T18:23:07;15.47;;;13.73;;
3054;SDS011;1537;52.018;8.542;2023-04-06T18:26:32;18.33;;;13.00;;
3054;SDS011;1537;52.018;8.542;2023-04-06T18:29:56;16.30;;;13.87;;
3054;SDS011;1537;52.018;8.542;2023-04-06T18:33:21;15.83;;;13.67;;
3054;SDS011;1537;52.018;8.542;2023-04-06T18:36:46;16.70;;;14.10;;
3054;SDS011;1537;52.018;8.542;2023-04-06T18:43:52;16.50;;;13.03;;
3054;SDS011;1537;52.018;8.542;2023-04-06T18:47:16;17.27;;;13.00;;
3054;SDS011;1537;52.018;8.542;2023-04-06T18:50:39;13.67;;;11.73;;
3054;SDS011;1537;52.018;8.542;2023-04-06T18:54:04;17.60;;;12.83;;
3054;SDS011;1537;52.018;8.542;2023-04-06T18:57:28;14.40;;;11.80;;
3054;SDS011;1537;52.018;8.542;2023-04-06T19:00:52;14.33;;;12.30;;
3054;SDS011;1537;52.018;8.542;2023-04-06T19:04:18;14.50;;;11.77;;
3054;SDS011;1537;52.018;8.542;2023-04-06T19:07:43;17.53;;;11.57;;
3054;SDS011;1537;52.018;8.542;2023-04-06T19:11:11;13.33;;;11.23;;
3054;SDS011;1537;52.018;8.542;2023-04-06T19:14:35;13.10;;;11.80;;
3054;SDS011;1537;52.018;8.542;2023-04-06T19:17:59;14.20;;;12.20;;
3054;SDS011;1537;52.018;8.542;2023-04-06T19:21:23;14.80;;;11.83;;
3054;SDS011;1537;52.018;8.542;2023-04-06T19:24:48;15.97;;;12.47;;
3054;SDS011;1537;52.018;8.542;2023-04-06T19:28:13;15.83;;;13.00;;
3054;SDS011;1537;52.018;8.542;2023-04-06T19:31:38;14.50;;;12.47;;
3054;SDS011;1537;52.018;8.542;2023-04-06T19:35:02;14.00;;;12.17;;
3054;SDS011;1537;52.018;8.542;2023-04-06T19:38:27;15.13;;;12.43;;
3054;SDS011;1537;52.018;8.542;2023-04-06T19:41:51;13.70;;;11.63;;
3054;SDS011;1537;52.018;8.542;2023-04-06T19:45:19;15.00;;;13.07;;
3054;SDS011;1537;52.018;8.542;2023-04-06T19:48:43;14.77;;;13.20;;
3054;SDS011;1537;52.018;8.542;2023-04-06T19:52:07;18.17;;;13.33;;
3054;SDS011;1537;52.018;8.542;2023-04-06T19:55:31;17.30;;;13.10;;
3054;SDS011;1537;52.018;8.542;2023-04-06T19:58:55;15.57;;;12.50;;
3054;SDS011;1537;52.018;8.542;2023-04-06T20:02:20;15.27;;;12.87;;
3054;SDS011;1537;52.018;8.542;2023-04-06T20:05:45;14.93;;;12.13;;
3054;SDS011;1537;52.018;8.542;2023-04-06T20:09:09;15.80;;;11.77;;
3054;SDS011;1537;52.018;8.542;2023-04-06T20:12:35;18.80;;;10.97;;
3054;SDS011;1537;52.018;8.542;2023-04-06T20:16:00;13.97;;;11.87;;
3054;SDS011;1537;52.018;8.542;2023-04-06T20:19:30;15.07;;;11.20;;
3054;SDS011;1537;52.018;8.542;2023-04-06T20:22:54;17.27;;;11.43;;
3054;SDS011;1537;52.018;8.542;2023-04-06T20:26:21;20.93;;;11.90;;
3054;SDS011;1537;52.018;8.542;2023-04-06T20:29:46;15.47;;;12.13;;
3054;SDS011;1537;52.018;8.542;2023-04-06T20:33:10;14.03;;;12.13;;
3054;SDS011;1537;52.018;8.542;2023-04-06T20:36:38;12.90;;;11.00;;
3054;SDS011;1537;52.018;8.542;2023-04-06T20:40:02;14.90;;;11.90;;
3054;SDS011;1537;52.018;8.542;2023-04-06T20:43:29;17.50;;;11.20;;
3054;SDS011;1537;52.018;8.542;2023-04-06T20:46:53;13.80;;;11.63;;
3054;SDS011;1537;52.018;8.542;2023-04-06T20:50:17;14.00;;;12.20;;